Time;durP1;ratioP1;P1;durP2;ratioP2;P2;SDS_P1;SDS_P2;PMS_P1;PMS_P2;Temp;Humidity;BMP_temperature;BMP_pressure;BME280_temperature;BME280_humidity;BME280_pressure;Samples;Min_cycle;Max_cycle;Signal;HPM_P1;HPM_P2
2023/05/21 00:02:16;;;;;;;9.37;3.87;;;;;;;14.97;61.66;101012.16;4210314;28;20278;-67
2023/05/21 00:04:43;;;;;;;5.87;3.70;;;;;;;14.92;62.10;101003.63;4208961;28;20324;-68
2023/05/21 00:07:10;;;;;;;9.03;3.83;;;;;;;14.88;62.05;100997.59;4196619;28;20313;-66
2023/05/21 00:09:37;;;;;;;7.43;3.23;;;;;;;14.84;62.22;101002.53;4208326;28;20314;-66
2023/05/21 00:12:05;;;;;;;12.03;3.80;;;;;;;14.80;62.17;101006.59;4210488;28;20235;-67
2023/05/21 00:14:31;;;;;;;13.20;3.77;;;;;;;14.73;62.67;101003.66;4208444;28;22416;-65
2023/05/21 00:16:58;;;;;;;9.53;3.60;;;;;;;14.69;63.37;101007.72;4208327;28;22062;-67
2023/05/21 00:19:25;;;;;;;7.97;3.37;;;;;;;14.68;62.80;101003.28;4165410;28;1450356;-67
2023/05/21 00:21:53;;;;;;;9.00;3.83;;;;;;;14.61;62.97;101004.06;4211635;28;20228;-68
2023/05/21 00:24:20;;;;;;;9.43;3.53;;;;;;;14.54;63.23;100996.50;4209154;28;22873;-65
2023/05/21 00:26:46;;;;;;;8.20;3.73;;;;;;;14.51;63.42;100996.84;4222911;28;20290;-65
2023/05/21 00:29:13;;;;;;;7.10;3.47;;;;;;;14.46;63.95;100996.50;4208123;28;20367;-66
2023/05/21 00:31:39;;;;;;;12.17;3.97;;;;;;;14.40;64.30;101011.59;4209705;28;20814;-66
2023/05/21 00:34:06;;;;;;;6.07;3.43;;;;;;;14.38;63.50;101001.88;4209106;28;21733;-66
2023/05/21 00:36:33;;;;;;;8.30;3.40;;;;;;;14.40;63.38;101003.41;4208696;28;20236;-66
2023/05/21 00:39:01;;;;;;;5.77;3.53;;;;;;;14.38;63.67;101007.31;4201178;28;20337;-66
2023/05/21 00:41:28;;;;;;;9.70;3.63;;;;;;;14.35;63.40;101008.47;4207814;28;20757;-65
2023/05/21 00:43:59;;;;;;;5.77;3.20;;;;;;;14.38;63.39;101008.16;4207536;28;20635;-67
2023/05/21 00:46:27;;;;;;;7.73;3.70;;;;;;;14.33;64.07;101013.25;4194992;28;20251;-67
2023/05/21 00:48:53;;;;;;;7.73;3.80;;;;;;;14.29;63.87;101014.53;4194835;28;20250;-66
2023/05/21 00:51:20;;;;;;;7.93;3.87;;;;;;;14.25;63.94;101014.00;4194099;28;20486;-66
2023/05/21 00:53:50;;;;;;;7.37;3.47;;;;;;;14.31;63.85;101017.13;4205109;28;20236;-67
2023/05/21 00:56:18;;;;;;;6.97;3.17;;;;;;;14.25;63.90;101018.63;4192923;28;20236;-67
2023/05/21 00:58:45;;;;;;;8.70;4.00;;;;;;;14.14;64.04;101014.28;4207408;28;20240;-64
2023/05/21 01:01:12;;;;;;;9.93;3.63;;;;;;;14.08;64.66;101021.19;4207263;28;20232;-67
2023/05/21 01:03:39;;;;;;;8.67;4.00;;;;;;;14.17;64.23;101018.53;4212987;28;21018;-66
2023/05/21 01:06:07;;;;;;;10.17;3.70;;;;;;;14.16;63.73;101017.66;4211264;28;22347;-66
2023/05/21 01:08:37;;;;;;;9.60;3.50;;;;;;;14.09;64.12;101005.69;4200335;28;20243;-64
2023/05/21 01:11:05;;;;;;;9.33;3.53;;;;;;;14.05;64.41;101013.31;4219440;28;20241;-67
2023/05/21 01:13:35;;;;;;;8.10;3.70;;;;;;;14.02;64.58;101019.09;4224925;28;20266;-66
2023/05/21 01:16:05;;;;;;;13.60;3.63;;;;;;;13.89;64.77;101018.63;4205741;28;20237;-65
2023/05/21 01:18:33;;;;;;;12.30;3.73;;;;;;;13.82;65.13;101012.94;4200962;28;20266;-68
2023/05/21 01:21:01;;;;;;;10.13;3.77;;;;;;;13.84;65.00;101010.94;4198538;28;20245;-64
2023/05/21 01:23:28;;;;;;;11.70;4.03;;;;;;;13.82;64.44;101012.94;4215973;28;20244;-67
2023/05/21 01:25:54;;;;;;;10.63;3.73;;;;;;;13.78;64.53;101006.94;4210558;28;20233;-65
2023/05/21 01:28:21;;;;;;;10.50;3.77;;;;;;;13.79;64.53;101003.22;4211645;28;20239;-66
2023/05/21 01:30:47;;;;;;;7.30;3.70;;;;;;;13.85;64.20;101001.75;4221932;28;21437;-67
2023/05/21 01:33:17;;;;;;;9.27;3.23;;;;;;;13.82;64.00;101014.81;4200318;28;20237;-67
2023/05/21 01:35:50;;;;;;;5.50;3.43;;;;;;;13.79;63.78;101010.50;4205930;28;20241;-67
2023/05/21 01:38:46;;;;;;;9.60;3.33;;;;;;;13.77;63.95;101005.25;4200301;28;21125;-67
2023/05/21 01:41:17;;;;;;;9.93;3.13;;;;;;;13.72;63.93;101002.13;4214113;28;20270;-66
2023/05/21 01:43:45;;;;;;;6.63;3.57;;;;;;;13.81;63.44;101004.94;4212853;28;20289;-66
2023/05/21 01:46:15;;;;;;;7.73;3.70;;;;;;;13.80;63.09;100998.63;4221604;28;22724;-68
2023/05/21 01:48:42;;;;;;;9.40;3.37;;;;;;;13.79;63.10;100999.63;4216541;28;20515;-69
2023/05/21 01:51:09;;;;;;;7.40;3.37;;;;;;;13.71;63.35;100997.69;4198691;28;21140;-67
2023/05/21 01:53:39;;;;;;;5.63;3.10;;;;;;;13.63;63.37;101003.06;4213344;28;20246;-67
2023/05/21 01:56:06;;;;;;;10.17;3.80;;;;;;;13.69;63.01;101004.31;4216505;28;21159;-65
2023/05/21 01:58:33;;;;;;;9.77;3.47;;;;;;;13.70;62.53;100995.97;4215249;28;20236;-65
2023/05/21 02:00:59;;;;;;;9.43;3.23;;;;;;;13.70;62.37;100998.69;4216597;28;20337;-66
2023/05/21 02:03:27;;;;;;;10.57;3.97;;;;;;;13.68;62.60;101002.59;4219932;28;21188;-67
2023/05/21 02:05:54;;;;;;;10.43;3.33;;;;;;;13.68;62.48;100991.72;4204712;28;20241;-65
2023/05/21 02:08:22;;;;;;;6.30;3.30;;;;;;;13.65;61.93;100995.59;4213701;28;20233;-66
2023/05/21 02:10:49;;;;;;;6.47;3.23;;;;;;;13.61;62.47;100994.19;4213984;28;20232;-66
2023/05/21 02:13:19;;;;;;;9.43;3.40;;;;;;;13.55;62.90;100992.06;4215232;28;20283;-66
2023/05/21 02:15:46;;;;;;;6.53;3.13;;;;;;;13.53;63.00;100992.25;4220942;28;20266;-66
2023/05/21 02:18:15;;;;;;;5.57;3.20;;;;;;;13.50;63.12;100987.09;4210464;28;20295;-65
2023/05/21 02:20:42;;;;;;;5.87;3.33;;;;;;;13.55;63.25;100992.06;4202004;28;21622;-66
2023/05/21 02:23:09;;;;;;;7.33;3.53;;;;;;;13.51;63.08;100993.41;4214017;28;22431;-66
2023/05/21 02:25:35;;;;;;;5.97;3.33;;;;;;;13.41;63.34;100998.88;4201673;28;20237;-67
2023/05/21 02:28:02;;;;;;;6.13;3.17;;;;;;;13.43;63.00;100995.03;4209764;28;20229;-66
2023/05/21 02:30:29;;;;;;;6.90;3.40;;;;;;;13.49;62.47;100984.53;4210443;28;20298;-66
2023/05/21 02:32:57;;;;;;;8.27;3.07;;;;;;;13.51;62.01;100988.81;4199078;28;20292;-68
2023/05/21 02:35:24;;;;;;;8.00;3.60;;;;;;;13.52;61.79;100982.38;4210770;28;21273;-66
2023/05/21 02:37:51;;;;;;;10.40;2.87;;;;;;;13.52;61.61;100990.53;4206958;28;20241;-66
2023/05/21 02:40:18;;;;;;;7.50;3.07;;;;;;;13.52;61.12;100985.09;4208917;28;21400;-65
2023/05/21 02:42:44;;;;;;;7.30;2.80;;;;;;;13.53;60.94;100978.63;4210468;28;25042;-68
2023/05/21 02:45:11;;;;;;;7.50;3.20;;;;;;;13.60;60.57;100987.91;4206594;28;20241;-65
2023/05/21 02:47:38;;;;;;;9.37;2.90;;;;;;;13.59;60.56;100980.75;4225586;28;20239;-67
2023/05/21 02:50:06;;;;;;;5.73;3.03;;;;;;;13.74;60.15;100986.53;4217137;28;20230;-65
2023/05/21 02:52:33;;;;;;;6.93;2.80;;;;;;;13.72;60.25;100980.38;4213706;28;21173;-67
2023/05/21 02:54:59;;;;;;;3.83;2.50;;;;;;;13.77;59.99;100982.63;4218205;28;20232;-67
2023/05/21 02:57:26;;;;;;;8.50;3.17;;;;;;;13.65;60.55;100975.69;4231198;28;22182;-70
2023/05/21 02:59:53;;;;;;;7.73;3.10;;;;;;;13.61;61.03;100986.88;4217470;28;20228;-70
2023/05/21 03:02:19;;;;;;;7.10;3.30;;;;;;;13.66;60.70;100985.56;4215778;28;20299;-66
2023/05/21 03:04:46;;;;;;;6.40;3.10;;;;;;;13.70;60.20;100985.09;4244174;28;21380;-66
2023/05/21 03:07:14;;;;;;;8.97;3.20;;;;;;;13.79;60.25;100989.63;4212192;28;21726;-67
2023/05/21 03:09:41;;;;;;;6.20;2.50;;;;;;;13.77;60.52;100985.34;4209040;28;20236;-67
2023/05/21 03:12:08;;;;;;;11.40;3.37;;;;;;;13.70;60.47;100978.81;4228020;28;20233;-66
2023/05/21 03:14:35;;;;;;;7.33;2.87;;;;;;;13.65;61.27;100981.13;4222999;28;20231;-67
2023/05/21 03:17:04;;;;;;;6.30;3.07;;;;;;;13.70;60.73;100984.25;4235301;28;20240;-67
2023/05/21 03:19:35;;;;;;;12.00;3.30;;;;;;;13.65;61.50;100967.53;4204436;28;20417;-67
2023/05/21 03:22:03;;;;;;;9.67;3.23;;;;;;;13.59;61.70;100972.56;4250585;28;20230;-66
2023/05/21 03:24:30;;;;;;;8.63;3.40;;;;;;;13.50;62.14;100969.94;4254420;28;20315;-67
2023/05/21 03:26:58;;;;;;;6.10;3.23;;;;;;;13.43;63.12;100970.56;4228181;28;20239;-68
2023/05/21 03:29:24;;;;;;;6.60;3.17;;;;;;;13.39;63.32;100969.13;4224993;28;20231;-69
2023/05/21 03:31:52;;;;;;;6.63;3.07;;;;;;;13.34;64.12;100970.56;4238116;28;25740;-68
2023/05/21 03:34:19;;;;;;;8.87;3.60;;;;;;;13.34;63.63;100963.28;4239303;28;20885;-67
2023/05/21 03:36:46;;;;;;;10.87;3.43;;;;;;;13.43;63.71;100970.56;4225583;28;20239;-66
2023/05/21 03:39:13;;;;;;;7.90;3.40;;;;;;;13.40;63.92;100964.56;4244372;28;21020;-68
2023/05/21 03:41:41;;;;;;;9.53;3.73;;;;;;;13.51;63.56;100969.78;4214081;28;21978;-67
2023/05/21 03:44:07;;;;;;;8.37;3.53;;;;;;;13.49;64.04;100968.22;4198237;28;20322;-67
2023/05/21 03:46:34;;;;;;;8.80;2.93;;;;;;;13.52;63.92;100970.66;4247274;28;23049;-69
2023/05/21 03:49:01;;;;;;;11.10;3.67;;;;;;;13.60;63.79;100960.69;4239284;28;20326;-67
2023/05/21 03:51:29;;;;;;;7.67;3.53;;;;;;;13.71;63.26;100958.75;4222965;28;20236;-65
2023/05/21 03:53:59;;;;;;;10.83;3.57;;;;;;;13.73;63.39;100962.16;4217205;28;20240;-67
2023/05/21 03:56:25;;;;;;;9.47;3.43;;;;;;;13.80;63.31;100968.69;4201181;28;20309;-66
2023/05/21 03:58:52;;;;;;;8.07;3.20;;;;;;;13.84;62.90;100972.81;4233609;28;20231;-65
2023/05/21 04:01:18;;;;;;;6.50;3.37;;;;;;;13.91;63.23;100975.75;4220141;28;20461;-68
2023/05/21 04:03:45;;;;;;;9.67;3.37;;;;;;;13.96;62.90;100962.56;4212490;28;20270;-65
2023/05/21 04:06:12;;;;;;;6.00;3.33;;;;;;;13.90;62.95;100963.16;4207736;28;20239;-66
2023/05/21 04:08:39;;;;;;;8.03;3.20;;;;;;;13.96;62.86;100976.16;4218452;28;20240;-67
2023/05/21 04:11:05;;;;;;;8.97;3.80;;;;;;;14.07;62.59;100975.06;4234318;28;20231;-67
2023/05/21 04:13:32;;;;;;;14.23;3.60;;;;;;;14.21;62.09;100973.63;4214975;28;20480;-66
2023/05/21 04:15:58;;;;;;;7.43;3.87;;;;;;;14.18;62.30;100968.53;4211992;28;22322;-71
2023/05/21 04:18:25;;;;;;;8.43;3.67;;;;;;;14.24;61.91;100973.31;4213780;28;20231;-67
2023/05/21 04:20:52;;;;;;;8.10;4.23;;;;;;;14.27;61.61;100973.03;4216301;28;20248;-66
2023/05/21 04:23:22;;;;;;;11.80;3.73;;;;;;;14.30;61.91;100974.56;4219033;28;20235;-68
2023/05/21 04:25:49;;;;;;;7.40;3.20;;;;;;;14.22;62.06;100969.91;4208229;28;20236;-67
2023/05/21 04:28:19;;;;;;;8.63;4.20;;;;;;;14.34;61.32;100968.66;4193808;28;20591;-66
2023/05/21 04:30:46;;;;;;;5.67;3.30;;;;;;;14.41;61.20;100963.41;4211003;28;20238;-68
2023/05/21 04:33:16;;;;;;;9.93;3.53;;;;;;;14.50;60.48;100959.72;4219050;28;20427;-70
2023/05/21 04:35:46;;;;;;;10.23;3.50;;;;;;;14.54;60.66;100957.53;4211739;28;20228;-68
2023/05/21 04:38:12;;;;;;;5.63;3.40;;;;;;;14.62;60.12;100954.84;4208689;28;20453;-67
2023/05/21 04:40:39;;;;;;;6.77;3.07;;;;;;;14.71;59.53;100951.22;4213984;28;20635;-66
2023/05/21 04:43:06;;;;;;;5.27;3.23;;;;;;;14.73;59.35;100951.88;4233885;28;20387;-67
2023/05/21 04:45:33;;;;;;;7.07;3.27;;;;;;;14.77;59.26;100949.69;4203018;28;20361;-66
2023/05/21 04:48:01;;;;;;;8.50;3.20;;;;;;;14.82;59.92;100952.78;4212221;28;20227;-66
2023/05/21 04:50:30;;;;;;;8.57;3.40;;;;;;;14.88;58.79;100943.97;4215446;28;20236;-67
2023/05/21 04:52:58;;;;;;;8.20;3.37;;;;;;;14.94;58.34;100949.75;4200662;28;25359;-66
2023/05/21 04:55:26;;;;;;;6.43;3.00;;;;;;;14.99;57.21;100950.16;4213812;28;20514;-67
2023/05/21 04:57:52;;;;;;;8.03;3.30;;;;;;;15.07;57.71;100950.16;4204643;28;20239;-68
2023/05/21 05:00:20;;;;;;;10.93;3.50;;;;;;;15.19;57.24;100942.53;4205537;28;21228;-68
2023/05/21 05:02:46;;;;;;;6.10;2.97;;;;;;;15.28;57.38;100951.63;4207509;28;20227;-69
2023/05/21 05:05:13;;;;;;;5.13;2.87;;;;;;;15.43;56.43;100944.50;4204755;28;21429;-70
2023/05/21 05:07:40;;;;;;;15.43;3.07;;;;;;;15.49;55.87;100957.47;4224418;28;20868;-67
2023/05/21 05:10:07;;;;;;;8.40;3.10;;;;;;;15.64;55.75;100954.06;4226334;28;20235;-69
2023/05/21 05:12:33;;;;;;;7.13;2.77;;;;;;;15.76;55.07;100954.59;4208972;28;20567;-68
2023/05/21 05:15:00;;;;;;;12.23;2.83;;;;;;;15.81;55.39;100955.81;4207141;28;20813;-67
2023/05/21 05:17:27;;;;;;;6.73;2.80;;;;;;;15.95;55.81;100957.03;4229164;28;20322;-68
2023/05/21 05:19:54;;;;;;;6.30;2.37;;;;;;;16.10;53.77;100953.63;4226653;28;20239;-68
2023/05/21 05:22:20;;;;;;;5.40;2.57;;;;;;;16.24;54.11;100946.63;4205403;28;20397;-67
2023/05/21 05:24:47;;;;;;;8.47;2.90;;;;;;;16.37;53.75;100946.94;4213449;28;20240;-66
2023/05/21 05:27:13;;;;;;;7.40;2.90;;;;;;;16.50;53.64;100943.66;4215954;28;20288;-67
2023/05/21 05:29:40;;;;;;;6.17;3.00;;;;;;;16.80;52.65;100939.31;4209659;28;20313;-67
2023/05/21 05:32:07;;;;;;;5.20;2.47;;;;;;;16.95;52.33;100942.19;4227049;28;22496;-67
2023/05/21 05:34:33;;;;;;;8.57;2.93;;;;;;;17.38;51.01;100943.69;4224048;28;21091;-68
2023/05/21 05:37:01;;;;;;;4.30;2.60;;;;;;;17.89;49.79;100949.53;4193197;28;20239;-68
2023/05/21 05:39:28;;;;;;;6.07;2.30;;;;;;;18.69;47.63;100943.66;4217325;28;21207;-66
2023/05/21 05:41:54;;;;;;;8.23;2.23;;;;;;;19.22;45.36;100940.78;4203206;28;20744;-66
2023/05/21 05:44:21;;;;;;;4.93;2.23;;;;;;;19.90;45.02;100945.16;4200601;28;20685;-67
2023/05/21 05:46:47;;;;;;;6.60;2.47;;;;;;;20.85;42.43;100931.94;4211742;28;20941;-68
2023/05/21 05:49:14;;;;;;;5.83;2.37;;;;;;;21.45;40.54;100936.84;4206238;28;20422;-70
2023/05/21 05:51:41;;;;;;;12.07;2.60;;;;;;;22.38;39.31;100937.16;4215407;28;20237;-67
2023/05/21 05:54:07;;;;;;;6.87;2.40;;;;;;;23.36;36.72;100936.31;4215599;28;20234;-68
2023/05/21 05:56:34;;;;;;;8.13;2.20;;;;;;;23.35;35.95;100936.50;4221401;28;20644;-66
2023/05/21 05:59:00;;;;;;;9.80;2.33;;;;;;;23.06;36.75;100931.31;4226953;28;20236;-74
2023/05/21 06:01:27;;;;;;;7.77;2.90;;;;;;;23.42;35.80;100938.19;4217404;28;20305;-69
2023/05/21 06:03:54;;;;;;;6.73;2.60;;;;;;;23.73;35.86;100935.66;4207259;28;20248;-68
2023/05/21 06:06:20;;;;;;;11.97;2.77;;;;;;;24.49;34.93;100925.47;4208897;28;20298;-69
2023/05/21 06:08:47;;;;;;;5.77;2.70;;;;;;;24.16;34.85;100929.41;4222759;28;20266;-69
2023/05/21 06:11:17;;;;;;;6.13;2.33;;;;;;;24.23;34.80;100923.81;4234343;28;21126;-67
2023/05/21 06:13:44;;;;;;;6.87;2.30;;;;;;;24.02;35.29;100931.44;4231821;28;20623;-67
2023/05/21 06:16:11;;;;;;;5.87;2.00;;;;;;;24.65;34.58;100926.81;4213025;28;21871;-68
2023/05/21 06:18:38;;;;;;;7.00;2.20;;;;;;;24.70;33.90;100933.59;4219406;28;20308;-69
2023/05/21 06:21:05;;;;;;;5.23;2.20;;;;;;;24.93;33.38;100924.59;4219942;28;20342;-70
2023/05/21 06:23:31;;;;;;;6.77;2.27;;;;;;;24.96;33.32;100940.78;4209787;28;20243;-68
2023/05/21 06:25:58;;;;;;;7.07;2.20;;;;;;;25.09;33.18;100934.22;4237863;28;20251;-69
2023/05/21 06:28:25;;;;;;;5.67;2.20;;;;;;;25.76;32.94;100927.78;4264321;28;20289;-70
2023/05/21 06:30:52;;;;;;;5.27;2.30;;;;;;;26.30;31.85;100927.78;4244448;28;22545;-66
2023/05/21 06:33:18;;;;;;;4.00;2.10;;;;;;;26.70;30.84;100924.28;4253829;28;20248;-67
2023/05/21 06:35:45;;;;;;;3.27;2.10;;;;;;;26.62;31.24;100932.13;4266423;28;20416;-68
2023/05/21 06:38:12;;;;;;;5.10;2.17;;;;;;;26.86;30.31;100924.63;4269106;28;20973;-76
2023/05/21 06:40:39;;;;;;;4.35;2.10;;;;;;;27.29;29.55;100928.03;4264317;28;20933;-65
2023/05/21 06:43:05;;;;;;;9.57;2.70;;;;;;;25.84;31.94;100930.22;4247676;28;21056;-68
2023/05/21 06:45:32;;;;;;;4.93;2.00;;;;;;;25.36;32.87;100931.09;4255877;28;23941;-74
2023/05/21 06:47:59;;;;;;;4.07;2.42;;;;;;;26.37;31.80;100927.66;4244430;28;21131;-70
2023/05/21 06:50:26;;;;;;;4.87;2.20;;;;;;;26.91;30.59;100932.25;4244602;28;20239;-70
2023/05/21 06:52:53;;;;;;;4.03;2.27;;;;;;;27.40;29.80;100921.56;4239898;28;20429;-74
2023/05/21 06:55:20;;;;;;;5.35;2.40;;;;;;;27.22;30.21;100914.28;4258882;28;20231;-68
2023/05/21 06:57:46;;;;;;;9.15;2.40;;;;;;;26.94;30.31;100909.50;4233265;28;20240;-72
2023/05/21 07:00:13;;;;;;;13.30;2.30;;;;;;;25.94;31.92;100913.81;4246405;28;20814;-70
2023/05/21 07:02:40;;;;;;;6.68;1.95;;;;;;;26.08;31.74;100910.88;4261917;28;20259;-71
2023/05/21 07:05:07;;;;;;;3.65;2.10;;;;;;;25.65;31.57;100909.19;4231210;28;20235;-70
2023/05/21 07:07:34;;;;;;;4.20;2.20;;;;;;;25.61;32.40;100915.22;4229551;28;20246;-69
2023/05/21 07:10:00;;;;;;;8.20;1.80;;;;;;;26.47;31.09;100913.19;4241872;28;20234;-70
2023/05/21 07:12:27;;;;;;;4.30;1.90;;;;;;;27.02;30.83;100898.88;4228940;28;20276;-68
2023/05/21 07:14:53;;;;;;;5.57;2.20;;;;;;;27.81;29.43;100918.72;4243352;28;20275;-70
2023/05/21 07:17:22;;;;;;;6.82;2.47;;;;;;;28.21;28.96;100911.38;4187962;28;20241;-71
2023/05/21 07:19:49;;;;;;;2.88;1.83;;;;;;;27.64;29.13;100913.16;4204019;28;20729;-68
2023/05/21 07:22:15;;;;;;;9.38;2.35;;;;;;;27.57;29.40;100913.28;4212616;28;21413;-68
2023/05/21 07:24:42;;;;;;;6.53;2.35;;;;;;;26.98;29.99;100903.22;4208766;28;20295;-69
2023/05/21 07:27:08;;;;;;;20.70;2.50;;;;;;;27.17;30.06;100905.84;4218149;28;20243;-71
2023/05/21 07:29:51;;;;;;;4.73;2.10;;;;;;;26.69;30.86;100907.88;4220948;28;20338;-70
2023/05/21 07:32:17;;;;;;;4.53;2.30;;;;;;;26.25;31.25;100908.25;4216075;28;20235;-70
2023/05/21 07:34:44;;;;;;;3.43;1.80;;;;;;;25.37;32.01;100902.31;4226480;28;22810;-70
2023/05/21 07:37:11;;;;;;;13.67;2.43;;;;;;;24.66;33.63;100905.50;4208453;28;20670;-70
2023/05/21 07:39:38;;;;;;;7.20;2.33;;;;;;;24.42;34.12;100905.31;4211124;28;20261;-69
2023/05/21 07:42:05;;;;;;;6.30;2.17;;;;;;;24.40;34.51;100901.94;4215266;28;20357;-70
2023/05/21 07:44:31;;;;;;;3.17;2.00;;;;;;;24.14;34.56;100897.50;4233277;28;20386;-70
2023/05/21 07:46:58;;;;;;;2.87;2.00;;;;;;;23.81;34.67;100904.97;4223860;28;20901;-71
2023/05/21 07:49:25;;;;;;;3.63;2.10;;;;;;;24.09;33.77;100900.13;4187414;28;20247;-71
2023/05/21 07:51:51;;;;;;;4.50;1.80;;;;;;;23.96;34.82;100895.53;4230346;28;21003;-69
2023/05/21 07:54:18;;;;;;;5.57;2.20;;;;;;;23.44;35.29;100896.50;4210228;28;22304;-73
2023/05/21 07:56:45;;;;;;;2.87;1.80;;;;;;;23.86;35.69;100898.78;4237674;28;20286;-70
2023/05/21 07:59:13;;;;;;;6.27;2.00;;;;;;;24.30;35.46;100888.63;4202629;28;20329;-68
2023/05/21 08:01:39;;;;;;;9.37;2.23;;;;;;;24.65;33.86;100892.75;4203923;28;20244;-68
2023/05/21 08:04:06;;;;;;;6.07;1.83;;;;;;;23.77;33.93;100900.97;4209397;28;20227;-70
2023/05/21 08:06:33;;;;;;;4.17;1.90;;;;;;;24.15;33.96;100889.00;4216387;28;20241;-71
2023/05/21 08:09:04;;;;;;;4.67;1.80;;;;;;;23.37;35.18;100890.19;4232113;28;20762;-70
2023/05/21 08:11:32;;;;;;;8.30;1.97;;;;;;;23.05;35.59;100887.34;4227387;28;21704;-67
2023/05/21 08:13:59;;;;;;;5.67;1.90;;;;;;;23.14;35.27;100893.47;4209699;28;20306;-69
2023/05/21 08:16:25;;;;;;;6.47;1.90;;;;;;;23.09;35.86;100883.09;4236715;28;20238;-70
2023/05/21 08:18:52;;;;;;;4.50;2.10;;;;;;;22.81;36.30;100886.16;4216493;28;20314;-69
2023/05/21 08:21:19;;;;;;;8.00;2.27;;;;;;;23.14;36.32;100887.94;4229209;28;20240;-69
2023/05/21 08:23:46;;;;;;;3.90;2.10;;;;;;;23.30;35.46;100879.16;4215481;28;21388;-69
2023/05/21 08:26:15;;;;;;;6.67;1.73;;;;;;;23.31;35.21;100880.03;4217617;28;20232;-68
2023/05/21 08:28:42;;;;;;;7.80;1.80;;;;;;;23.98;35.29;100880.41;4222265;28;20248;-68
2023/05/21 08:31:09;;;;;;;3.63;2.10;;;;;;;24.04;33.37;100885.06;4253340;28;20233;-68
2023/05/21 08:33:38;;;;;;;2.20;1.63;;;;;;;23.86;33.35;100876.66;4229315;28;21228;-70
2023/05/21 08:36:05;;;;;;;6.90;1.87;;;;;;;23.77;32.80;100870.56;4224894;28;20236;-69
2023/05/21 08:38:35;;;;;;;4.47;1.73;;;;;;;24.18;31.62;100866.41;4217276;28;20303;-68
2023/05/21 08:41:04;;;;;;;3.00;1.60;;;;;;;24.28;32.21;100870.56;4224479;28;20243;-70
2023/05/21 08:43:30;;;;;;;5.00;1.43;;;;;;;24.28;31.84;100876.09;4226925;28;21409;-69
2023/05/21 08:45:59;;;;;;;6.73;1.70;;;;;;;24.04;31.62;100875.91;4211263;28;20306;-71
2023/05/21 08:48:26;;;;;;;4.03;1.30;;;;;;;24.09;31.37;100866.94;4236420;28;20240;-69
2023/05/21 08:50:53;;;;;;;7.63;1.83;;;;;;;24.10;31.38;100874.97;4230146;28;20301;-72
2023/05/21 08:53:23;;;;;;;5.50;1.77;;;;;;;23.31;31.64;100868.97;4208941;28;22295;-72
2023/05/21 08:55:55;;;;;;;7.30;1.70;;;;;;;23.67;32.32;100876.59;4218125;28;23386;-68
2023/05/21 08:58:21;;;;;;;2.60;1.50;;;;;;;23.77;31.81;100870.56;4190714;28;20730;-66
2023/05/21 09:00:48;;;;;;;4.43;1.50;;;;;;;23.69;30.84;100879.13;4228241;28;20227;-69
2023/05/21 09:03:15;;;;;;;5.80;1.60;;;;;;;23.84;31.01;100874.13;4224474;28;20239;-69
2023/05/21 09:05:43;;;;;;;7.33;1.70;;;;;;;23.85;31.11;100872.19;4226643;28;20228;-68
2023/05/21 09:08:13;;;;;;;6.80;1.90;;;;;;;24.06;30.70;100876.53;4204344;28;23173;-68
2023/05/21 09:10:50;;;;;;;5.63;1.60;;;;;;;24.20;29.99;100872.56;4200844;28;21947;-68
2023/05/21 09:13:18;;;;;;;4.73;1.47;;;;;;;23.91;30.63;100885.13;4224881;28;21680;-68
2023/05/21 09:15:45;;;;;;;2.60;1.57;;;;;;;23.50;31.23;100873.50;4212060;28;20227;-70
2023/05/21 09:18:13;;;;;;;5.50;1.83;;;;;;;23.81;30.78;100870.97;4197477;28;21319;-68
2023/05/21 09:20:40;;;;;;;4.57;1.20;;;;;;;23.76;30.80;100862.47;4223813;28;20358;-69
2023/05/21 09:23:15;;;;;;;9.53;2.03;;;;;;;23.65;31.23;100856.63;4219838;28;20228;-68
2023/05/21 09:25:46;;;;;;;4.50;1.77;;;;;;;23.38;31.96;100861.50;4229809;28;20235;-68
2023/05/21 09:28:14;;;;;;;4.80;1.67;;;;;;;23.58;32.53;100867.72;4209481;28;20632;-70
2023/05/21 09:30:50;;;;;;;3.47;1.50;;;;;;;23.60;29.76;100861.13;4234440;28;20671;-70
2023/05/21 09:33:25;;;;;;;3.60;1.50;;;;;;;23.25;30.59;100859.66;4221823;28;20268;-71
2023/05/21 09:35:51;;;;;;;8.97;1.60;;;;;;;23.30;32.02;100850.69;4205532;28;20417;-70
2023/05/21 09:38:21;;;;;;;5.30;1.80;;;;;;;23.65;30.64;100859.41;4205452;28;20310;-67
2023/05/21 09:40:48;;;;;;;3.83;1.50;;;;;;;23.24;30.92;100857.94;4230671;28;20244;-70
2023/05/21 09:43:15;;;;;;;4.47;1.80;;;;;;;23.60;29.61;100850.94;4217802;28;20255;-69
2023/05/21 09:45:52;;;;;;;5.03;1.77;;;;;;;23.44;32.14;100862.53;4213239;28;21742;-68
2023/05/21 09:48:40;;;;;;;8.00;2.10;;;;;;;23.60;31.58;100864.75;4225487;28;20500;-69
2023/05/21 09:51:11;;;;;;;3.17;1.70;;;;;;;23.41;32.07;100861.06;4211138;28;20275;-69
2023/05/21 09:53:47;;;;;;;5.13;1.87;;;;;;;23.37;32.12;100848.75;4210292;28;20236;-68
2023/05/21 09:56:15;;;;;;;4.63;1.60;;;;;;;23.43;33.43;100847.84;4205427;28;23062;-69
2023/05/21 09:58:42;;;;;;;3.80;1.80;;;;;;;23.32;31.76;100851.34;4216098;28;21347;-72
2023/05/21 10:01:09;;;;;;;4.50;1.63;;;;;;;23.09;32.59;100853.53;4223936;28;20224;-69
2023/05/21 10:03:38;;;;;;;4.27;1.87;;;;;;;23.13;33.35;100853.13;4225673;28;20636;-70
2023/05/21 10:06:08;;;;;;;4.97;2.07;;;;;;;23.11;31.99;100856.09;4230570;28;20347;-70
2023/05/21 10:08:36;;;;;;;3.33;1.73;;;;;;;22.93;32.49;100856.81;4232974;28;20247;-69
2023/05/21 10:11:04;;;;;;;5.47;2.10;;;;;;;22.91;31.94;100846.00;4210249;28;20303;-70
2023/05/21 10:13:33;;;;;;;6.27;1.80;;;;;;;23.36;32.86;100839.63;4224584;28;20976;-70
2023/05/21 10:16:01;;;;;;;7.43;1.90;;;;;;;23.52;32.17;100845.69;4220555;28;20388;-70
2023/05/21 10:18:29;;;;;;;6.33;1.80;;;;;;;23.28;33.19;100839.88;4233002;28;20923;-71
2023/05/21 10:20:57;;;;;;;3.97;1.83;;;;;;;23.34;32.29;100841.75;4210001;28;20235;-69
2023/05/21 10:23:24;;;;;;;5.47;1.67;;;;;;;23.15;33.55;100842.69;4225024;28;21600;-69
2023/05/21 10:25:51;;;;;;;5.40;1.87;;;;;;;23.31;33.27;100836.66;4214822;28;20309;-74
2023/05/21 10:28:19;;;;;;;6.03;1.83;;;;;;;23.64;34.22;100838.34;4209119;28;21644;-71
2023/05/21 10:30:45;;;;;;;8.13;2.00;;;;;;;23.54;33.59;100841.63;4245458;28;20277;-70
2023/05/21 10:33:18;;;;;;;4.37;1.63;;;;;;;23.75;32.33;100839.53;4226381;28;20425;-69
2023/05/21 10:35:47;;;;;;;6.33;1.90;;;;;;;23.86;32.37;100830.53;4206664;28;23369;-70
2023/05/21 10:38:14;;;;;;;4.80;1.67;;;;;;;23.37;32.38;100834.94;4224614;28;20247;-69
2023/05/21 10:40:41;;;;;;;7.03;1.80;;;;;;;23.17;32.77;100824.88;4220944;28;20264;-72
2023/05/21 10:43:16;;;;;;;7.20;2.10;;;;;;;23.01;32.89;100831.72;4223992;28;20649;-70
2023/05/21 10:46:18;;;;;;;2.97;1.73;;;;;;;23.16;34.00;100827.81;4220580;28;20738;-69
2023/05/21 10:49:10;;;;;;;4.57;1.70;;;;;;;23.20;33.26;100824.41;4214569;28;22172;-70
2023/05/21 10:51:49;;;;;;;6.73;1.80;;;;;;;23.39;33.06;100822.59;4241562;28;20636;-69
2023/05/21 10:54:34;;;;;;;4.50;1.60;;;;;;;23.15;33.39;100815.09;4223114;28;21931;-68
2023/05/21 10:57:11;;;;;;;5.23;2.20;;;;;;;23.32;34.75;100810.72;4222126;28;21737;-66
2023/05/21 10:59:42;;;;;;;7.17;2.30;;;;;;;23.47;33.03;100815.94;4232811;28;20250;-67
2023/05/21 11:02:10;;;;;;;4.67;2.20;;;;;;;23.83;32.80;100806.09;4235482;28;20443;-66
2023/05/21 11:04:38;;;;;;;7.83;2.13;;;;;;;23.33;33.37;100817.94;4226224;28;20639;-67
2023/05/21 11:07:05;;;;;;;2.93;1.80;;;;;;;23.32;33.73;100813.50;4232581;28;21485;-69
2023/05/21 11:09:32;;;;;;;8.07;2.00;;;;;;;23.34;33.60;100805.00;4231079;28;20552;-67
2023/05/21 11:11:59;;;;;;;6.23;1.70;;;;;;;23.42;32.67;100811.09;4221085;28;20232;-68
2023/05/21 11:14:34;;;;;;;5.47;2.10;;;;;;;23.44;32.33;100810.03;4220165;28;20236;-69
2023/05/21 11:17:01;;;;;;;8.40;2.07;;;;;;;23.58;33.70;100806.09;4215742;28;22198;-68
2023/05/21 11:19:34;;;;;;;5.30;1.97;;;;;;;23.90;32.30;100794.97;4225427;28;20240;-70
2023/05/21 11:22:06;;;;;;;10.60;2.50;;;;;;;23.87;31.83;100795.41;4240398;28;20447;-72
2023/05/21 11:24:36;;;;;;;4.87;2.07;;;;;;;24.09;31.47;100795.88;4224773;28;20375;-68
2023/05/21 11:27:03;;;;;;;4.43;2.10;;;;;;;24.02;31.52;100790.41;4222081;28;21202;-68
2023/05/21 11:29:32;;;;;;;5.70;1.90;;;;;;;23.87;32.30;100784.34;4207571;28;20573;-69